ATOK1: Verdigris River, Altoona, KS

Data processed at Thu May 23 2019 23:50


All information presented herein is the property of the government of the United States of America and may be revised or deleted at any time without prior notice.
Dissemination of this information without the expressed written consent of the Public Affairs Office, Tulsa District U.S. Army Corps of Engineers is strictly prohibited.
These data are gathered electronically and, as presented, have not undergone any form of quality control. These data are not guaranteed to be valid or correct.
Go to home page.
Go to station list.
Go to home page.

Upstream stations:

Downstream station:
Previous Day
Next Day
Current Day
    
SHEF ID:       ATOK1     VERDIGRIS R NR ALTOONA, KS
STATION TYPE:  
Regulating: Stage =    19.00, Flow =    12698

               PRECIP     STAGE  RIV-FLOW  BAT-LOAD
                   in        ft       cfs      volt
              Ccp-Rev   Ccp-Rev   Ccp-Rev   Ccp-Rev
(US/Central)
05/23 00:00      0.01     19.22     13447     12.89
05/23 01:00      0.00     19.22     13447     12.89
05/23 02:00      0.00     19.11     12976     12.89
05/23 03:00      0.01     19.15     13146     12.89
05/23 04:00      0.00     19.14     13103     12.89
05/23 05:00      0.06     19.16     13188     12.89
05/23 06:00      0.03     19.20     13360     12.77
05/23 07:00      0.00     19.21     13403     12.83
05/23 08:00      0.01     19.26     13621     12.89
05/23 09:00      0.00     19.29     13754     12.83
05/23 10:00      0.00     19.30     13798     12.89
05/23 11:00      0.01     19.33     13931     12.95
05/23 12:00      0.00     19.36     14066     12.83
05/23 13:00      0.02     19.36     14066     13.59
05/23 14:00      0.00     19.35     14021     14.06
05/23 15:00      0.00     19.37     14111     13.36
05/23 16:00      0.00     19.37     14111     13.42
05/23 17:00      0.01     19.36     14066     13.53
05/23 18:00      0.00     19.30     13798     13.36
05/23 19:00      0.00     19.29     13754     13.12
05/23 20:00      0.00     19.32     13887     13.00
05/23 21:00      0.00     19.26     13621     13.00
05/23 22:00      0.00     19.24     13534     13.00
05/23 23:00      0.00     19.14     13103     12.95